メインページ
METAR-TAF:

METAR-TAF

空港 :

イエローナイフ, ノースウェスト準州, カナダ

イエローナイフ空港

緯度: 62-28N, 経度: 114-27W, 海抜: 205m

現時点の気象観測

当レポートは1時間35分前の21:00(UTC)に作成
南西の風 3kt、南/南東から西/南西の間で変化する
気温 25°C
湿度 36%
気圧 1012 hPa
視程: 24.1km
高度4000ftの雲はほとんどない
高度10000ftの雲は散在している
高度16000ftの千切れ雲あり

METAR: CYZF 262100Z 23003KT 150V250 15SM FEW040 SCT100 BKN160 25/09 A2989 RMK SC1AC2AC2 SLP127 DENSITY ALT 2000FT

時間: 16:35 (22:35 UTC)

予報

当レポートは4時間52分前の17:43(UTC)に作成
予報は26日の 18時(UTC)から 27日の 18時(UTC)まで有効
の風 5kt
視程: 10km
高度8000ftの雲はほとんどない
高度20000ftの雲は散在している
26日の 2100時(UTC)から
南/南東の風 8kt
視程: 10km
高度8000ftの千切れ雲あり
高度20000ftの千切れ雲あり
27日の 0600時(UTC)から
東/南東の風 10kt
視程: 10km
高度8000ftの千切れ雲あり
高度20000ftの曇り

TAF: CYZF 261743Z 2618/2718 17005KT P6SM FEW080 SCT200 FM262100 16008KT P6SM BKN080 BKN200 FM270600 11010KT P6SM BKN080 OVC200 RMK NXT FCST BY 270000Z

4,000以上の空港の気象観測と天気予報(METAR報とTAF報)

利用可能な観測所は地図上に黄色い丸と赤い丸で示す。

丸の上にカーソルを重ねると観測所名を参照できる。

次にクリックすると気象観測と天気予報を参照できる。

マップの切り替え:黒色「×」印の緑ボタンをクリックして拡大、「-」印の緑ボタンをクリックして縮小、緑色の三角印をクリックして隣りの地図に切り替え


METAR-TAF: